sensor_id;sensor_type;location;lat;lon;timestamp;P1;durP1;ratioP1;P2;durP2;ratioP2
16300;SDS011;8258;51.020;4.248;2022-08-11T00:02:24;0.00;;;0.00;;
16300;SDS011;8258;51.020;4.248;2022-08-11T00:04:53;0.00;;;0.00;;
16300;SDS011;8258;51.020;4.248;2022-08-11T00:07:22;0.00;;;0.00;;
16300;SDS011;8258;51.020;4.248;2022-08-11T00:09:50;0.00;;;0.00;;
16300;SDS011;8258;51.020;4.248;2022-08-11T00:12:18;0.53;;;0.53;;
16300;SDS011;8258;51.020;4.248;2022-08-11T00:14:46;0.00;;;0.00;;
16300;SDS011;8258;51.020;4.248;2022-08-11T00:17:24;0.00;;;0.00;;
16300;SDS011;8258;51.020;4.248;2022-08-11T00:19:59;0.00;;;0.00;;
16300;SDS011;8258;51.020;4.248;2022-08-11T00:22:28;0.00;;;0.00;;
16300;SDS011;8258;51.020;4.248;2022-08-11T00:24:56;0.00;;;0.00;;
16300;SDS011;8258;51.020;4.248;2022-08-11T00:27:32;0.67;;;0.67;;
16300;SDS011;8258;51.020;4.248;2022-08-11T00:30:00;0.00;;;0.00;;
16300;SDS011;8258;51.020;4.248;2022-08-11T00:32:29;0.00;;;0.00;;
16300;SDS011;8258;51.020;4.248;2022-08-11T00:34:57;0.00;;;0.00;;
16300;SDS011;8258;51.020;4.248;2022-08-11T00:37:25;0.00;;;0.00;;
16300;SDS011;8258;51.020;4.248;2022-08-11T00:39:55;0.00;;;0.00;;
16300;SDS011;8258;51.020;4.248;2022-08-11T00:42:26;0.00;;;0.00;;
16300;SDS011;8258;51.020;4.248;2022-08-11T00:45:06;0.00;;;0.00;;
16300;SDS011;8258;51.020;4.248;2022-08-11T00:47:43;0.00;;;0.00;;
16300;SDS011;8258;51.020;4.248;2022-08-11T00:50:23;0.00;;;0.00;;
16300;SDS011;8258;51.020;4.248;2022-08-11T00:53:11;0.00;;;0.00;;
16300;SDS011;8258;51.020;4.248;2022-08-11T01:02:16;0.00;;;0.00;;
16300;SDS011;8258;51.020;4.248;2022-08-11T01:05:05;0.00;;;0.00;;
16300;SDS011;8258;51.020;4.248;2022-08-11T01:11:11;0.00;;;0.00;;
16300;SDS011;8258;51.020;4.248;2022-08-11T01:14:07;0.00;;;0.00;;
16300;SDS011;8258;51.020;4.248;2022-08-11T01:17:02;0.00;;;0.00;;
16300;SDS011;8258;51.020;4.248;2022-08-11T01:19:52;0.00;;;0.00;;
16300;SDS011;8258;51.020;4.248;2022-08-11T01:25:57;0.00;;;0.00;;
16300;SDS011;8258;51.020;4.248;2022-08-11T01:29:15;0.00;;;0.00;;
16300;SDS011;8258;51.020;4.248;2022-08-11T01:32:34;0.00;;;0.00;;
16300;SDS011;8258;51.020;4.248;2022-08-11T01:38:41;0.00;;;0.00;;
16300;SDS011;8258;51.020;4.248;2022-08-11T01:41:28;0.00;;;0.00;;
16300;SDS011;8258;51.020;4.248;2022-08-11T01:44:33;0.00;;;0.00;;
16300;SDS011;8258;51.020;4.248;2022-08-11T01:47:23;0.00;;;0.00;;
16300;SDS011;8258;51.020;4.248;2022-08-11T01:50:15;0.00;;;0.00;;
16300;SDS011;8258;51.020;4.248;2022-08-11T01:52:54;0.00;;;0.00;;
16300;SDS011;8258;51.020;4.248;2022-08-11T01:55:32;0.00;;;0.00;;
16300;SDS011;8258;51.020;4.248;2022-08-11T01:58:07;0.00;;;0.00;;
16300;SDS011;8258;51.020;4.248;2022-08-11T02:00:44;0.00;;;0.00;;
16300;SDS011;8258;51.020;4.248;2022-08-11T02:03:19;0.00;;;0.00;;
16300;SDS011;8258;51.020;4.248;2022-08-11T02:05:56;0.00;;;0.00;;
16300;SDS011;8258;51.020;4.248;2022-08-11T02:08:48;0.00;;;0.00;;
16300;SDS011;8258;51.020;4.248;2022-08-11T02:11:23;0.00;;;0.00;;
16300;SDS011;8258;51.020;4.248;2022-08-11T02:14:11;0.00;;;0.00;;
16300;SDS011;8258;51.020;4.248;2022-08-11T02:19:48;0.00;;;0.00;;
16300;SDS011;8258;51.020;4.248;2022-08-11T02:22:41;0.00;;;0.00;;
16300;SDS011;8258;51.020;4.248;2022-08-11T02:25:37;0.00;;;0.00;;
16300;SDS011;8258;51.020;4.248;2022-08-11T02:28:26;0.00;;;0.00;;
16300;SDS011;8258;51.020;4.248;2022-08-11T02:30:59;0.00;;;0.00;;
16300;SDS011;8258;51.020;4.248;2022-08-11T02:33:50;0.00;;;0.00;;
16300;SDS011;8258;51.020;4.248;2022-08-11T02:36:41;0.00;;;0.00;;
16300;SDS011;8258;51.020;4.248;2022-08-11T02:39:21;0.00;;;0.00;;
16300;SDS011;8258;51.020;4.248;2022-08-11T02:41:57;0.00;;;0.00;;
16300;SDS011;8258;51.020;4.248;2022-08-11T02:44:55;0.00;;;0.00;;
16300;SDS011;8258;51.020;4.248;2022-08-11T02:47:34;0.00;;;0.00;;
16300;SDS011;8258;51.020;4.248;2022-08-11T02:50:34;0.00;;;0.00;;
16300;SDS011;8258;51.020;4.248;2022-08-11T02:53:05;0.00;;;0.00;;
16300;SDS011;8258;51.020;4.248;2022-08-11T02:55:41;0.00;;;0.00;;
16300;SDS011;8258;51.020;4.248;2022-08-11T02:58:33;0.00;;;0.00;;
16300;SDS011;8258;51.020;4.248;2022-08-11T03:01:11;0.00;;;0.00;;
16300;SDS011;8258;51.020;4.248;2022-08-11T03:03:44;0.00;;;0.00;;
16300;SDS011;8258;51.020;4.248;2022-08-11T03:06:23;0.00;;;0.00;;
16300;SDS011;8258;51.020;4.248;2022-08-11T03:08:58;0.00;;;0.00;;
16300;SDS011;8258;51.020;4.248;2022-08-11T03:11:31;0.00;;;0.00;;
16300;SDS011;8258;51.020;4.248;2022-08-11T03:14:30;0.00;;;0.00;;
16300;SDS011;8258;51.020;4.248;2022-08-11T03:17:29;0.00;;;0.00;;
16300;SDS011;8258;51.020;4.248;2022-08-11T03:20:14;0.00;;;0.00;;
16300;SDS011;8258;51.020;4.248;2022-08-11T03:22:56;0.00;;;0.00;;
16300;SDS011;8258;51.020;4.248;2022-08-11T03:25:30;0.00;;;0.00;;
16300;SDS011;8258;51.020;4.248;2022-08-11T03:28:05;0.00;;;0.00;;
16300;SDS011;8258;51.020;4.248;2022-08-11T03:30:47;0.00;;;0.00;;
16300;SDS011;8258;51.020;4.248;2022-08-11T03:33:22;0.17;;;0.17;;
16300;SDS011;8258;51.020;4.248;2022-08-11T03:36:12;0.00;;;0.00;;
16300;SDS011;8258;51.020;4.248;2022-08-11T03:38:52;0.00;;;0.00;;
16300;SDS011;8258;51.020;4.248;2022-08-11T03:41:28;0.00;;;0.00;;
16300;SDS011;8258;51.020;4.248;2022-08-11T03:44:19;0.00;;;0.00;;
16300;SDS011;8258;51.020;4.248;2022-08-11T03:47:07;0.00;;;0.00;;
16300;SDS011;8258;51.020;4.248;2022-08-11T03:49:54;0.00;;;0.00;;
16300;SDS011;8258;51.020;4.248;2022-08-11T03:52:30;0.00;;;0.00;;
16300;SDS011;8258;51.020;4.248;2022-08-11T03:55:08;0.00;;;0.00;;
16300;SDS011;8258;51.020;4.248;2022-08-11T03:57:44;0.00;;;0.00;;
16300;SDS011;8258;51.020;4.248;2022-08-11T04:00:57;0.00;;;0.00;;
16300;SDS011;8258;51.020;4.248;2022-08-11T04:03:56;0.00;;;0.00;;
16300;SDS011;8258;51.020;4.248;2022-08-11T04:06:48;0.00;;;0.00;;
16300;SDS011;8258;51.020;4.248;2022-08-11T04:13:12;0.00;;;0.00;;
16300;SDS011;8258;51.020;4.248;2022-08-11T04:16:15;0.00;;;0.00;;
16300;SDS011;8258;51.020;4.248;2022-08-11T04:25:39;0.00;;;0.00;;
16300;SDS011;8258;51.020;4.248;2022-08-11T04:28:36;0.00;;;0.00;;
16300;SDS011;8258;51.020;4.248;2022-08-11T04:31:29;0.00;;;0.00;;
16300;SDS011;8258;51.020;4.248;2022-08-11T04:34:17;0.00;;;0.00;;
16300;SDS011;8258;51.020;4.248;2022-08-11T04:37:09;0.00;;;0.00;;
16300;SDS011;8258;51.020;4.248;2022-08-11T04:40:11;0.00;;;0.00;;
16300;SDS011;8258;51.020;4.248;2022-08-11T04:46:09;0.00;;;0.00;;
16300;SDS011;8258;51.020;4.248;2022-08-11T04:49:15;0.00;;;0.00;;
16300;SDS011;8258;51.020;4.248;2022-08-11T04:55:33;0.00;;;0.00;;
16300;SDS011;8258;51.020;4.248;2022-08-11T04:58:34;0.00;;;0.00;;
16300;SDS011;8258;51.020;4.248;2022-08-11T05:01:31;0.00;;;0.00;;
16300;SDS011;8258;51.020;4.248;2022-08-11T05:07:33;0.00;;;0.00;;
16300;SDS011;8258;51.020;4.248;2022-08-11T05:10:27;0.00;;;0.00;;
16300;SDS011;8258;51.020;4.248;2022-08-11T05:13:11;0.00;;;0.00;;
16300;SDS011;8258;51.020;4.248;2022-08-11T05:16:10;0.00;;;0.00;;
16300;SDS011;8258;51.020;4.248;2022-08-11T05:18:58;0.00;;;0.00;;
16300;SDS011;8258;51.020;4.248;2022-08-11T05:21:45;0.00;;;0.00;;
16300;SDS011;8258;51.020;4.248;2022-08-11T05:24:36;0.00;;;0.00;;
16300;SDS011;8258;51.020;4.248;2022-08-11T05:27:26;0.00;;;0.00;;
16300;SDS011;8258;51.020;4.248;2022-08-11T05:30:16;0.00;;;0.00;;
16300;SDS011;8258;51.020;4.248;2022-08-11T05:33:04;0.00;;;0.00;;
16300;SDS011;8258;51.020;4.248;2022-08-11T05:35:54;0.00;;;0.00;;
16300;SDS011;8258;51.020;4.248;2022-08-11T05:38:29;0.00;;;0.00;;
16300;SDS011;8258;51.020;4.248;2022-08-11T05:41:18;0.00;;;0.00;;
16300;SDS011;8258;51.020;4.248;2022-08-11T05:44:04;0.00;;;0.00;;
16300;SDS011;8258;51.020;4.248;2022-08-11T05:46:49;0.00;;;0.00;;
16300;SDS011;8258;51.020;4.248;2022-08-11T05:49:35;0.00;;;0.00;;
16300;SDS011;8258;51.020;4.248;2022-08-11T05:52:21;0.00;;;0.00;;
16300;SDS011;8258;51.020;4.248;2022-08-11T05:55:08;0.00;;;0.00;;
16300;SDS011;8258;51.020;4.248;2022-08-11T05:57:54;0.00;;;0.00;;
16300;SDS011;8258;51.020;4.248;2022-08-11T06:00:22;0.00;;;0.00;;
16300;SDS011;8258;51.020;4.248;2022-08-11T06:02:50;0.00;;;0.00;;
16300;SDS011;8258;51.020;4.248;2022-08-11T06:05:20;0.00;;;0.00;;
16300;SDS011;8258;51.020;4.248;2022-08-11T06:07:48;0.00;;;0.00;;
16300;SDS011;8258;51.020;4.248;2022-08-11T06:10:26;0.00;;;0.00;;
16300;SDS011;8258;51.020;4.248;2022-08-11T06:12:57;0.00;;;0.00;;
16300;SDS011;8258;51.020;4.248;2022-08-11T06:15:26;0.00;;;0.00;;
16300;SDS011;8258;51.020;4.248;2022-08-11T06:17:55;0.00;;;0.00;;
16300;SDS011;8258;51.020;4.248;2022-08-11T06:20:26;0.00;;;0.00;;
16300;SDS011;8258;51.020;4.248;2022-08-11T06:22:58;0.77;;;0.77;;
16300;SDS011;8258;51.020;4.248;2022-08-11T06:25:29;0.13;;;0.13;;
16300;SDS011;8258;51.020;4.248;2022-08-11T06:27:59;0.00;;;0.00;;
16300;SDS011;8258;51.020;4.248;2022-08-11T06:30:33;0.00;;;0.00;;
16300;SDS011;8258;51.020;4.248;2022-08-11T06:33:05;0.00;;;0.00;;
16300;SDS011;8258;51.020;4.248;2022-08-11T06:35:37;0.00;;;0.00;;
16300;SDS011;8258;51.020;4.248;2022-08-11T06:38:13;0.00;;;0.00;;
16300;SDS011;8258;51.020;4.248;2022-08-11T06:40:50;0.00;;;0.00;;
16300;SDS011;8258;51.020;4.248;2022-08-11T06:43:56;0.00;;;0.00;;
16300;SDS011;8258;51.020;4.248;2022-08-11T06:46:32;0.20;;;0.20;;
16300;SDS011;8258;51.020;4.248;2022-08-11T06:49:01;0.00;;;0.00;;
16300;SDS011;8258;51.020;4.248;2022-08-11T06:51:30;0.00;;;0.00;;
16300;SDS011;8258;51.020;4.248;2022-08-11T06:53:59;0.00;;;0.00;;
16300;SDS011;8258;51.020;4.248;2022-08-11T06:56:27;0.00;;;0.00;;
16300;SDS011;8258;51.020;4.248;2022-08-11T06:59:14;0.20;;;0.20;;
16300;SDS011;8258;51.020;4.248;2022-08-11T07:02:00;1.10;;;1.00;;
16300;SDS011;8258;51.020;4.248;2022-08-11T07:04:34;0.00;;;0.00;;
16300;SDS011;8258;51.020;4.248;2022-08-11T07:07:22;0.10;;;0.10;;
16300;SDS011;8258;51.020;4.248;2022-08-11T07:10:32;0.50;;;0.50;;
16300;SDS011;8258;51.020;4.248;2022-08-11T07:13:30;0.13;;;0.13;;
16300;SDS011;8258;51.020;4.248;2022-08-11T07:16:20;0.23;;;0.23;;
16300;SDS011;8258;51.020;4.248;2022-08-11T07:19:00;0.30;;;0.30;;
16300;SDS011;8258;51.020;4.248;2022-08-11T07:21:48;0.17;;;0.17;;
16300;SDS011;8258;51.020;4.248;2022-08-11T07:24:36;0.23;;;0.23;;
16300;SDS011;8258;51.020;4.248;2022-08-11T07:27:24;0.10;;;0.10;;
16300;SDS011;8258;51.020;4.248;2022-08-11T07:30:13;0.20;;;0.20;;
16300;SDS011;8258;51.020;4.248;2022-08-11T07:32:44;0.20;;;0.20;;
16300;SDS011;8258;51.020;4.248;2022-08-11T07:35:17;0.20;;;0.20;;
16300;SDS011;8258;51.020;4.248;2022-08-11T07:37:49;2.27;;;2.17;;
16300;SDS011;8258;51.020;4.248;2022-08-11T07:40:24;0.20;;;0.20;;
16300;SDS011;8258;51.020;4.248;2022-08-11T07:42:52;0.20;;;0.20;;
16300;SDS011;8258;51.020;4.248;2022-08-11T07:45:20;0.30;;;0.30;;
16300;SDS011;8258;51.020;4.248;2022-08-11T07:48:07;2.73;;;0.83;;
16300;SDS011;8258;51.020;4.248;2022-08-11T07:50:53;0.20;;;0.20;;
16300;SDS011;8258;51.020;4.248;2022-08-11T07:53:39;0.20;;;0.20;;
16300;SDS011;8258;51.020;4.248;2022-08-11T07:56:07;0.30;;;0.30;;
16300;SDS011;8258;51.020;4.248;2022-08-11T07:58:40;0.20;;;0.20;;
16300;SDS011;8258;51.020;4.248;2022-08-11T08:01:26;0.40;;;0.40;;
16300;SDS011;8258;51.020;4.248;2022-08-11T08:04:13;0.20;;;0.20;;
16300;SDS011;8258;51.020;4.248;2022-08-11T08:07:01;0.30;;;0.30;;
16300;SDS011;8258;51.020;4.248;2022-08-11T08:09:47;3.70;;;3.40;;
16300;SDS011;8258;51.020;4.248;2022-08-11T08:12:33;0.30;;;0.30;;
16300;SDS011;8258;51.020;4.248;2022-08-11T08:15:19;0.30;;;0.30;;
16300;SDS011;8258;51.020;4.248;2022-08-11T08:18:05;0.40;;;0.40;;
16300;SDS011;8258;51.020;4.248;2022-08-11T08:20:35;0.40;;;0.40;;
16300;SDS011;8258;51.020;4.248;2022-08-11T08:23:04;0.40;;;0.40;;
16300;SDS011;8258;51.020;4.248;2022-08-11T08:25:32;0.40;;;0.40;;
16300;SDS011;8258;51.020;4.248;2022-08-11T08:28:04;0.63;;;0.63;;
16300;SDS011;8258;51.020;4.248;2022-08-11T08:30:34;0.40;;;0.40;;
16300;SDS011;8258;51.020;4.248;2022-08-11T08:33:16;0.60;;;0.60;;
16300;SDS011;8258;51.020;4.248;2022-08-11T08:35:46;0.40;;;0.40;;
16300;SDS011;8258;51.020;4.248;2022-08-11T08:38:15;0.63;;;0.63;;
16300;SDS011;8258;51.020;4.248;2022-08-11T08:40:43;0.50;;;0.50;;
16300;SDS011;8258;51.020;4.248;2022-08-11T08:43:14;0.50;;;0.50;;
16300;SDS011;8258;51.020;4.248;2022-08-11T08:45:43;0.50;;;0.50;;
16300;SDS011;8258;51.020;4.248;2022-08-11T08:48:12;1.33;;;0.87;;
16300;SDS011;8258;51.020;4.248;2022-08-11T08:50:42;0.60;;;0.60;;
16300;SDS011;8258;51.020;4.248;2022-08-11T08:53:31;0.60;;;0.60;;
16300;SDS011;8258;51.020;4.248;2022-08-11T08:56:01;0.60;;;0.60;;
16300;SDS011;8258;51.020;4.248;2022-08-11T08:58:30;0.70;;;0.70;;
16300;SDS011;8258;51.020;4.248;2022-08-11T09:01:01;2.73;;;2.63;;
16300;SDS011;8258;51.020;4.248;2022-08-11T09:03:32;0.50;;;0.50;;
16300;SDS011;8258;51.020;4.248;2022-08-11T09:06:02;0.40;;;0.40;;
16300;SDS011;8258;51.020;4.248;2022-08-11T09:08:29;0.60;;;0.60;;
16300;SDS011;8258;51.020;4.248;2022-08-11T09:10:57;0.70;;;0.70;;
16300;SDS011;8258;51.020;4.248;2022-08-11T09:13:45;0.60;;;0.60;;
16300;SDS011;8258;51.020;4.248;2022-08-11T09:16:12;0.67;;;0.67;;
16300;SDS011;8258;51.020;4.248;2022-08-11T09:18:40;0.80;;;0.80;;
16300;SDS011;8258;51.020;4.248;2022-08-11T09:21:09;0.70;;;0.70;;
16300;SDS011;8258;51.020;4.248;2022-08-11T09:23:38;0.70;;;0.70;;
16300;SDS011;8258;51.020;4.248;2022-08-11T09:26:24;1.30;;;1.30;;
16300;SDS011;8258;51.020;4.248;2022-08-11T09:29:10;2.00;;;1.90;;
16300;SDS011;8258;51.020;4.248;2022-08-11T09:31:38;0.80;;;0.80;;
16300;SDS011;8258;51.020;4.248;2022-08-11T09:34:05;0.70;;;0.70;;
16300;SDS011;8258;51.020;4.248;2022-08-11T09:36:33;1.10;;;1.10;;
16300;SDS011;8258;51.020;4.248;2022-08-11T09:39:18;0.73;;;0.73;;
16300;SDS011;8258;51.020;4.248;2022-08-11T09:42:02;0.60;;;0.60;;
16300;SDS011;8258;51.020;4.248;2022-08-11T09:44:33;0.70;;;0.70;;
16300;SDS011;8258;51.020;4.248;2022-08-11T09:47:19;0.70;;;0.70;;
16300;SDS011;8258;51.020;4.248;2022-08-11T09:49:48;0.60;;;0.60;;
16300;SDS011;8258;51.020;4.248;2022-08-11T09:52:17;0.60;;;0.60;;
16300;SDS011;8258;51.020;4.248;2022-08-11T09:54:46;0.70;;;0.70;;
16300;SDS011;8258;51.020;4.248;2022-08-11T09:57:16;0.90;;;0.90;;
16300;SDS011;8258;51.020;4.248;2022-08-11T10:00:03;1.10;;;1.10;;
16300;SDS011;8258;51.020;4.248;2022-08-11T10:02:31;0.70;;;0.70;;
16300;SDS011;8258;51.020;4.248;2022-08-11T10:05:00;1.20;;;1.20;;
16300;SDS011;8258;51.020;4.248;2022-08-11T10:07:42;0.80;;;0.80;;
16300;SDS011;8258;51.020;4.248;2022-08-11T10:10:14;0.80;;;0.80;;
16300;SDS011;8258;51.020;4.248;2022-08-11T10:12:46;0.80;;;0.80;;
16300;SDS011;8258;51.020;4.248;2022-08-11T10:15:18;0.80;;;0.80;;
16300;SDS011;8258;51.020;4.248;2022-08-11T10:18:01;0.70;;;0.70;;
16300;SDS011;8258;51.020;4.248;2022-08-11T10:20:50;0.80;;;0.80;;
16300;SDS011;8258;51.020;4.248;2022-08-11T10:23:19;0.60;;;0.60;;
16300;SDS011;8258;51.020;4.248;2022-08-11T10:26:04;2.07;;;1.97;;
16300;SDS011;8258;51.020;4.248;2022-08-11T10:28:50;0.87;;;0.87;;
16300;SDS011;8258;51.020;4.248;2022-08-11T10:31:20;0.67;;;0.67;;
16300;SDS011;8258;51.020;4.248;2022-08-11T10:34:05;0.77;;;0.77;;
16300;SDS011;8258;51.020;4.248;2022-08-11T10:36:35;0.73;;;0.73;;
16300;SDS011;8258;51.020;4.248;2022-08-11T10:39:09;0.77;;;0.77;;
16300;SDS011;8258;51.020;4.248;2022-08-11T10:41:39;0.80;;;0.80;;
16300;SDS011;8258;51.020;4.248;2022-08-11T10:44:24;0.80;;;0.80;;
16300;SDS011;8258;51.020;4.248;2022-08-11T10:46:53;0.90;;;0.90;;
16300;SDS011;8258;51.020;4.248;2022-08-11T10:49:38;1.40;;;1.40;;
16300;SDS011;8258;51.020;4.248;2022-08-11T10:52:06;1.03;;;1.03;;
16300;SDS011;8258;51.020;4.248;2022-08-11T10:54:50;0.80;;;0.80;;
16300;SDS011;8258;51.020;4.248;2022-08-11T10:57:35;1.67;;;1.57;;
16300;SDS011;8258;51.020;4.248;2022-08-11T11:00:20;1.43;;;1.43;;
16300;SDS011;8258;51.020;4.248;2022-08-11T11:02:49;0.77;;;0.77;;
16300;SDS011;8258;51.020;4.248;2022-08-11T11:05:20;0.90;;;0.90;;
16300;SDS011;8258;51.020;4.248;2022-08-11T11:07:54;0.90;;;0.90;;
16300;SDS011;8258;51.020;4.248;2022-08-11T11:10:56;0.93;;;0.93;;
16300;SDS011;8258;51.020;4.248;2022-08-11T11:13:23;1.45;;;1.45;;
16300;SDS011;8258;51.020;4.248;2022-08-11T11:16:09;1.10;;;1.10;;
16300;SDS011;8258;51.020;4.248;2022-08-11T11:19:05;1.08;;;1.08;;
16300;SDS011;8258;51.020;4.248;2022-08-11T11:21:34;1.30;;;1.30;;
16300;SDS011;8258;51.020;4.248;2022-08-11T11:24:06;1.27;;;1.27;;
16300;SDS011;8258;51.020;4.248;2022-08-11T11:26:42;0.90;;;0.90;;
16300;SDS011;8258;51.020;4.248;2022-08-11T11:32:23;0.90;;;0.90;;
16300;SDS011;8258;51.020;4.248;2022-08-11T11:35:01;1.10;;;1.10;;
16300;SDS011;8258;51.020;4.248;2022-08-11T11:37:38;1.67;;;1.67;;
16300;SDS011;8258;51.020;4.248;2022-08-11T11:40:07;0.93;;;0.93;;
16300;SDS011;8258;51.020;4.248;2022-08-11T11:42:36;0.88;;;0.88;;
16300;SDS011;8258;51.020;4.248;2022-08-11T11:45:04;1.20;;;1.20;;
16300;SDS011;8258;51.020;4.248;2022-08-11T11:47:33;1.00;;;1.00;;
16300;SDS011;8258;51.020;4.248;2022-08-11T11:50:04;3.53;;;3.33;;
16300;SDS011;8258;51.020;4.248;2022-08-11T11:52:33;1.02;;;1.02;;
16300;SDS011;8258;51.020;4.248;2022-08-11T11:55:00;1.08;;;1.08;;
16300;SDS011;8258;51.020;4.248;2022-08-11T11:57:29;1.30;;;1.30;;
16300;SDS011;8258;51.020;4.248;2022-08-11T12:00:14;1.17;;;1.17;;
16300;SDS011;8258;51.020;4.248;2022-08-11T12:03:00;0.98;;;0.98;;
16300;SDS011;8258;51.020;4.248;2022-08-11T12:05:30;0.90;;;0.90;;
16300;SDS011;8258;51.020;4.248;2022-08-11T12:08:00;1.00;;;1.00;;
16300;SDS011;8258;51.020;4.248;2022-08-11T12:10:42;1.10;;;1.10;;
16300;SDS011;8258;51.020;4.248;2022-08-11T12:13:11;1.30;;;1.30;;
16300;SDS011;8258;51.020;4.248;2022-08-11T12:15:58;1.40;;;1.40;;
16300;SDS011;8258;51.020;4.248;2022-08-11T12:18:28;1.20;;;1.20;;
16300;SDS011;8258;51.020;4.248;2022-08-11T12:21:00;1.45;;;1.45;;
16300;SDS011;8258;51.020;4.248;2022-08-11T12:23:28;1.20;;;1.20;;
16300;SDS011;8258;51.020;4.248;2022-08-11T12:26:14;1.30;;;1.30;;
16300;SDS011;8258;51.020;4.248;2022-08-11T12:29:00;1.63;;;1.63;;
16300;SDS011;8258;51.020;4.248;2022-08-11T12:31:29;1.10;;;1.10;;
16300;SDS011;8258;51.020;4.248;2022-08-11T12:34:00;1.25;;;1.17;;
16300;SDS011;8258;51.020;4.248;2022-08-11T12:36:32;1.20;;;1.20;;
16300;SDS011;8258;51.020;4.248;2022-08-11T12:39:02;1.00;;;1.00;;
16300;SDS011;8258;51.020;4.248;2022-08-11T12:41:32;2.97;;;2.88;;
16300;SDS011;8258;51.020;4.248;2022-08-11T12:44:18;1.10;;;1.10;;
16300;SDS011;8258;51.020;4.248;2022-08-11T12:47:05;0.90;;;0.90;;
16300;SDS011;8258;51.020;4.248;2022-08-11T12:49:35;1.30;;;1.30;;
16300;SDS011;8258;51.020;4.248;2022-08-11T12:52:41;1.20;;;1.20;;
16300;SDS011;8258;51.020;4.248;2022-08-11T12:55:15;2.00;;;2.00;;
16300;SDS011;8258;51.020;4.248;2022-08-11T12:58:06;1.50;;;1.50;;
16300;SDS011;8258;51.020;4.248;2022-08-11T13:00:41;1.55;;;1.55;;
16300;SDS011;8258;51.020;4.248;2022-08-11T13:03:27;1.35;;;1.35;;
16300;SDS011;8258;51.020;4.248;2022-08-11T13:06:11;1.30;;;1.30;;
16300;SDS011;8258;51.020;4.248;2022-08-11T13:08:41;1.05;;;1.05;;
16300;SDS011;8258;51.020;4.248;2022-08-11T13:11:10;1.17;;;1.17;;
16300;SDS011;8258;51.020;4.248;2022-08-11T13:13:55;1.20;;;1.20;;
16300;SDS011;8258;51.020;4.248;2022-08-11T13:16:24;1.40;;;1.40;;
16300;SDS011;8258;51.020;4.248;2022-08-11T13:18:54;2.58;;;2.38;;
16300;SDS011;8258;51.020;4.248;2022-08-11T13:21:22;1.50;;;1.50;;
16300;SDS011;8258;51.020;4.248;2022-08-11T13:23:52;1.20;;;1.20;;
16300;SDS011;8258;51.020;4.248;2022-08-11T13:26:20;1.20;;;1.20;;
16300;SDS011;8258;51.020;4.248;2022-08-11T13:28:48;1.40;;;1.40;;
16300;SDS011;8258;51.020;4.248;2022-08-11T13:31:16;1.10;;;1.10;;
16300;SDS011;8258;51.020;4.248;2022-08-11T13:33:43;1.10;;;1.10;;
16300;SDS011;8258;51.020;4.248;2022-08-11T13:36:13;1.20;;;1.20;;
16300;SDS011;8258;51.020;4.248;2022-08-11T13:38:45;1.30;;;1.30;;
16300;SDS011;8258;51.020;4.248;2022-08-11T13:41:15;1.20;;;1.20;;
16300;SDS011;8258;51.020;4.248;2022-08-11T13:44:01;1.40;;;1.40;;
16300;SDS011;8258;51.020;4.248;2022-08-11T13:46:29;1.33;;;1.33;;
16300;SDS011;8258;51.020;4.248;2022-08-11T13:48:57;1.38;;;1.38;;
16300;SDS011;8258;51.020;4.248;2022-08-11T13:51:25;1.35;;;1.35;;
16300;SDS011;8258;51.020;4.248;2022-08-11T13:53:55;1.40;;;1.40;;
16300;SDS011;8258;51.020;4.248;2022-08-11T13:56:24;1.60;;;1.60;;
16300;SDS011;8258;51.020;4.248;2022-08-11T13:58:53;1.30;;;1.30;;
16300;SDS011;8258;51.020;4.248;2022-08-11T14:01:20;1.30;;;1.30;;
16300;SDS011;8258;51.020;4.248;2022-08-11T14:03:51;1.40;;;1.40;;
16300;SDS011;8258;51.020;4.248;2022-08-11T14:06:19;1.30;;;1.30;;
16300;SDS011;8258;51.020;4.248;2022-08-11T14:08:48;1.10;;;1.10;;
16300;SDS011;8258;51.020;4.248;2022-08-11T14:11:18;1.10;;;1.10;;
16300;SDS011;8258;51.020;4.248;2022-08-11T14:14:05;1.00;;;1.00;;
16300;SDS011;8258;51.020;4.248;2022-08-11T14:16:37;1.40;;;1.40;;
16300;SDS011;8258;51.020;4.248;2022-08-11T14:19:08;0.90;;;0.90;;
16300;SDS011;8258;51.020;4.248;2022-08-11T14:21:40;0.85;;;0.85;;
16300;SDS011;8258;51.020;4.248;2022-08-11T14:24:26;1.30;;;1.30;;
16300;SDS011;8258;51.020;4.248;2022-08-11T14:26:54;1.10;;;1.10;;
16300;SDS011;8258;51.020;4.248;2022-08-11T14:29:24;1.20;;;1.20;;
16300;SDS011;8258;51.020;4.248;2022-08-11T14:31:53;1.30;;;1.30;;
16300;SDS011;8258;51.020;4.248;2022-08-11T14:34:23;1.10;;;1.10;;
16300;SDS011;8258;51.020;4.248;2022-08-11T14:36:54;1.30;;;1.30;;
16300;SDS011;8258;51.020;4.248;2022-08-11T14:39:24;1.10;;;1.10;;
16300;SDS011;8258;51.020;4.248;2022-08-11T14:41:53;1.08;;;1.08;;
16300;SDS011;8258;51.020;4.248;2022-08-11T14:44:44;1.30;;;1.30;;
16300;SDS011;8258;51.020;4.248;2022-08-11T14:47:42;1.50;;;1.50;;
16300;SDS011;8258;51.020;4.248;2022-08-11T14:50:13;1.13;;;1.13;;
16300;SDS011;8258;51.020;4.248;2022-08-11T14:52:48;1.20;;;1.20;;
16300;SDS011;8258;51.020;4.248;2022-08-11T14:55:16;1.20;;;1.20;;
16300;SDS011;8258;51.020;4.248;2022-08-11T14:58:03;1.30;;;1.30;;
16300;SDS011;8258;51.020;4.248;2022-08-11T15:00:32;1.42;;;1.42;;
16300;SDS011;8258;51.020;4.248;2022-08-11T15:03:00;1.20;;;1.20;;
16300;SDS011;8258;51.020;4.248;2022-08-11T15:05:34;1.48;;;1.48;;
16300;SDS011;8258;51.020;4.248;2022-08-11T15:08:03;1.20;;;1.20;;
16300;SDS011;8258;51.020;4.248;2022-08-11T15:10:31;1.30;;;1.30;;
16300;SDS011;8258;51.020;4.248;2022-08-11T15:12:58;1.20;;;1.20;;
16300;SDS011;8258;51.020;4.248;2022-08-11T15:15:26;1.15;;;1.15;;
16300;SDS011;8258;51.020;4.248;2022-08-11T15:18:13;1.48;;;1.48;;
16300;SDS011;8258;51.020;4.248;2022-08-11T15:20:42;1.23;;;1.23;;
16300;SDS011;8258;51.020;4.248;2022-08-11T15:23:26;1.30;;;1.30;;
16300;SDS011;8258;51.020;4.248;2022-08-11T15:26:12;1.30;;;1.30;;
16300;SDS011;8258;51.020;4.248;2022-08-11T15:28:43;1.25;;;1.25;;
16300;SDS011;8258;51.020;4.248;2022-08-11T15:31:29;1.13;;;1.13;;
16300;SDS011;8258;51.020;4.248;2022-08-11T15:34:17;1.02;;;1.02;;
16300;SDS011;8258;51.020;4.248;2022-08-11T15:37:06;1.10;;;1.10;;
16300;SDS011;8258;51.020;4.248;2022-08-11T15:39:52;1.10;;;1.10;;
16300;SDS011;8258;51.020;4.248;2022-08-11T15:42:48;1.10;;;1.10;;
16300;SDS011;8258;51.020;4.248;2022-08-11T15:45:36;1.00;;;1.00;;
16300;SDS011;8258;51.020;4.248;2022-08-11T15:48:16;0.95;;;0.95;;
16300;SDS011;8258;51.020;4.248;2022-08-11T15:50:53;1.10;;;1.10;;
16300;SDS011;8258;51.020;4.248;2022-08-11T15:53:25;0.93;;;0.93;;
16300;SDS011;8258;51.020;4.248;2022-08-11T15:55:56;1.50;;;1.50;;
16300;SDS011;8258;51.020;4.248;2022-08-11T15:58:25;1.00;;;1.00;;
16300;SDS011;8258;51.020;4.248;2022-08-11T16:01:14;0.90;;;0.90;;
16300;SDS011;8258;51.020;4.248;2022-08-11T16:04:00;1.08;;;1.08;;
16300;SDS011;8258;51.020;4.248;2022-08-11T16:06:39;0.80;;;0.80;;
16300;SDS011;8258;51.020;4.248;2022-08-11T16:09:10;1.00;;;1.00;;
16300;SDS011;8258;51.020;4.248;2022-08-11T16:11:40;0.90;;;0.90;;
16300;SDS011;8258;51.020;4.248;2022-08-11T16:14:08;0.80;;;0.80;;
16300;SDS011;8258;51.020;4.248;2022-08-11T16:16:54;1.13;;;1.13;;
16300;SDS011;8258;51.020;4.248;2022-08-11T16:19:24;0.90;;;0.90;;
16300;SDS011;8258;51.020;4.248;2022-08-11T16:22:00;1.20;;;1.20;;
16300;SDS011;8258;51.020;4.248;2022-08-11T16:24:31;0.95;;;0.95;;
16300;SDS011;8258;51.020;4.248;2022-08-11T16:27:00;1.10;;;1.10;;
16300;SDS011;8258;51.020;4.248;2022-08-11T16:29:29;0.90;;;0.90;;
16300;SDS011;8258;51.020;4.248;2022-08-11T16:31:57;0.90;;;0.90;;
16300;SDS011;8258;51.020;4.248;2022-08-11T16:34:45;1.00;;;1.00;;
16300;SDS011;8258;51.020;4.248;2022-08-11T16:37:36;0.90;;;0.90;;
16300;SDS011;8258;51.020;4.248;2022-08-11T16:40:23;3.00;;;2.90;;
16300;SDS011;8258;51.020;4.248;2022-08-11T16:42:51;0.80;;;0.80;;
16300;SDS011;8258;51.020;4.248;2022-08-11T16:45:36;0.63;;;0.63;;
16300;SDS011;8258;51.020;4.248;2022-08-11T16:48:24;0.60;;;0.60;;
16300;SDS011;8258;51.020;4.248;2022-08-11T16:50:55;0.50;;;0.50;;
16300;SDS011;8258;51.020;4.248;2022-08-11T16:53:26;0.60;;;0.60;;